sensor_id;sensor_type;location;lat;lon;timestamp;P1;durP1;ratioP1;P2;durP2;ratioP2
14094;SDS011;18096;48.142;16.290;2024-02-28T00:00:34;5.73;;;1.43;;
14094;SDS011;18096;48.142;16.290;2024-02-28T00:03:01;2.20;;;1.77;;
14094;SDS011;18096;48.142;16.290;2024-02-28T00:05:27;4.90;;;1.47;;
14094;SDS011;18096;48.142;16.290;2024-02-28T00:07:52;3.37;;;1.73;;
14094;SDS011;18096;48.142;16.290;2024-02-28T00:10:18;1.93;;;1.60;;
14094;SDS011;18096;48.142;16.290;2024-02-28T00:12:44;2.00;;;1.50;;
14094;SDS011;18096;48.142;16.290;2024-02-28T00:15:16;2.47;;;1.70;;
14094;SDS011;18096;48.142;16.290;2024-02-28T00:17:43;4.20;;;1.97;;
14094;SDS011;18096;48.142;16.290;2024-02-28T00:20:10;1.60;;;1.40;;
14094;SDS011;18096;48.142;16.290;2024-02-28T00:22:39;3.27;;;1.17;;
14094;SDS011;18096;48.142;16.290;2024-02-28T00:25:07;3.73;;;1.63;;
14094;SDS011;18096;48.142;16.290;2024-02-28T00:27:36;3.33;;;2.00;;
14094;SDS011;18096;48.142;16.290;2024-02-28T00:30:03;2.50;;;1.90;;
14094;SDS011;18096;48.142;16.290;2024-02-28T00:32:31;2.30;;;1.90;;
14094;SDS011;18096;48.142;16.290;2024-02-28T00:34:57;3.50;;;1.90;;
14094;SDS011;18096;48.142;16.290;2024-02-28T00:37:23;3.43;;;1.70;;
14094;SDS011;18096;48.142;16.290;2024-02-28T00:39:49;5.70;;;1.60;;
14094;SDS011;18096;48.142;16.290;2024-02-28T00:42:14;1.90;;;1.40;;
14094;SDS011;18096;48.142;16.290;2024-02-28T00:44:40;4.53;;;1.93;;
14094;SDS011;18096;48.142;16.290;2024-02-28T00:47:08;1.90;;;1.77;;
14094;SDS011;18096;48.142;16.290;2024-02-28T00:49:34;14.33;;;2.00;;
14094;SDS011;18096;48.142;16.290;2024-02-28T00:52:00;3.83;;;1.67;;
14094;SDS011;18096;48.142;16.290;2024-02-28T00:54:26;2.27;;;1.50;;
14094;SDS011;18096;48.142;16.290;2024-02-28T00:56:53;9.93;;;1.87;;
14094;SDS011;18096;48.142;16.290;2024-02-28T00:59:18;1.93;;;1.80;;
14094;SDS011;18096;48.142;16.290;2024-02-28T01:01:44;4.90;;;1.70;;
14094;SDS011;18096;48.142;16.290;2024-02-28T01:04:10;5.50;;;1.77;;
14094;SDS011;18096;48.142;16.290;2024-02-28T01:06:35;1.53;;;1.43;;
14094;SDS011;18096;48.142;16.290;2024-02-28T01:09:02;5.03;;;1.97;;
14094;SDS011;18096;48.142;16.290;2024-02-28T01:11:28;3.30;;;1.60;;
14094;SDS011;18096;48.142;16.290;2024-02-28T01:13:53;1.37;;;1.10;;
14094;SDS011;18096;48.142;16.290;2024-02-28T01:16:19;2.60;;;1.40;;
14094;SDS011;18096;48.142;16.290;2024-02-28T01:18:45;2.20;;;2.10;;
14094;SDS011;18096;48.142;16.290;2024-02-28T01:21:10;1.60;;;1.50;;
14094;SDS011;18096;48.142;16.290;2024-02-28T01:23:36;3.03;;;1.30;;
14094;SDS011;18096;48.142;16.290;2024-02-28T01:26:03;4.20;;;1.60;;
14094;SDS011;18096;48.142;16.290;2024-02-28T01:28:32;2.73;;;2.03;;
14094;SDS011;18096;48.142;16.290;2024-02-28T01:30:58;2.80;;;1.70;;
14094;SDS011;18096;48.142;16.290;2024-02-28T01:33:25;1.80;;;1.80;;
14094;SDS011;18096;48.142;16.290;2024-02-28T01:35:51;3.37;;;1.30;;
14094;SDS011;18096;48.142;16.290;2024-02-28T01:38:16;3.07;;;2.57;;
14094;SDS011;18096;48.142;16.290;2024-02-28T01:40:45;1.53;;;1.37;;
14094;SDS011;18096;48.142;16.290;2024-02-28T01:43:11;2.50;;;1.43;;
14094;SDS011;18096;48.142;16.290;2024-02-28T01:45:37;1.63;;;1.53;;
14094;SDS011;18096;48.142;16.290;2024-02-28T01:48:04;1.83;;;1.70;;
14094;SDS011;18096;48.142;16.290;2024-02-28T01:50:39;4.63;;;1.43;;
14094;SDS011;18096;48.142;16.290;2024-02-28T01:53:06;1.53;;;1.37;;
14094;SDS011;18096;48.142;16.290;2024-02-28T01:55:34;2.63;;;1.80;;
14094;SDS011;18096;48.142;16.290;2024-02-28T01:58:01;3.27;;;1.80;;
14094;SDS011;18096;48.142;16.290;2024-02-28T02:00:30;1.43;;;1.33;;
14094;SDS011;18096;48.142;16.290;2024-02-28T02:02:59;6.43;;;1.63;;
14094;SDS011;18096;48.142;16.290;2024-02-28T02:05:28;7.13;;;1.50;;
14094;SDS011;18096;48.142;16.290;2024-02-28T02:07:55;6.23;;;2.13;;
14094;SDS011;18096;48.142;16.290;2024-02-28T02:10:23;10.40;;;2.67;;
14094;SDS011;18096;48.142;16.290;2024-02-28T02:12:49;2.30;;;1.93;;
14094;SDS011;18096;48.142;16.290;2024-02-28T02:15:14;2.63;;;1.73;;
14094;SDS011;18096;48.142;16.290;2024-02-28T02:17:40;1.67;;;1.60;;
14094;SDS011;18096;48.142;16.290;2024-02-28T02:20:08;7.43;;;2.80;;
14094;SDS011;18096;48.142;16.290;2024-02-28T02:22:37;4.20;;;2.23;;
14094;SDS011;18096;48.142;16.290;2024-02-28T02:25:03;2.87;;;2.40;;
14094;SDS011;18096;48.142;16.290;2024-02-28T02:27:30;4.80;;;1.87;;
14094;SDS011;18096;48.142;16.290;2024-02-28T02:29:55;3.30;;;2.40;;
14094;SDS011;18096;48.142;16.290;2024-02-28T02:32:23;3.67;;;2.07;;
14094;SDS011;18096;48.142;16.290;2024-02-28T02:34:48;7.13;;;1.73;;
14094;SDS011;18096;48.142;16.290;2024-02-28T02:37:14;3.03;;;1.90;;
14094;SDS011;18096;48.142;16.290;2024-02-28T02:39:40;3.03;;;2.63;;
14094;SDS011;18096;48.142;16.290;2024-02-28T02:42:05;5.27;;;2.00;;
14094;SDS011;18096;48.142;16.290;2024-02-28T02:44:31;5.50;;;2.23;;
14094;SDS011;18096;48.142;16.290;2024-02-28T02:46:57;7.73;;;1.70;;
14094;SDS011;18096;48.142;16.290;2024-02-28T02:49:22;2.13;;;1.93;;
14094;SDS011;18096;48.142;16.290;2024-02-28T02:51:48;9.17;;;2.27;;
14094;SDS011;18096;48.142;16.290;2024-02-28T02:54:14;4.70;;;2.43;;
14094;SDS011;18096;48.142;16.290;2024-02-28T02:56:42;3.73;;;2.30;;
14094;SDS011;18096;48.142;16.290;2024-02-28T02:59:09;5.20;;;2.30;;
14094;SDS011;18096;48.142;16.290;2024-02-28T03:01:36;2.87;;;1.90;;
14094;SDS011;18096;48.142;16.290;2024-02-28T03:04:01;5.23;;;2.90;;
14094;SDS011;18096;48.142;16.290;2024-02-28T03:06:29;4.60;;;2.20;;
14094;SDS011;18096;48.142;16.290;2024-02-28T03:08:54;2.00;;;1.90;;
14094;SDS011;18096;48.142;16.290;2024-02-28T03:11:20;3.87;;;2.20;;
14094;SDS011;18096;48.142;16.290;2024-02-28T03:13:46;1.93;;;1.77;;
14094;SDS011;18096;48.142;16.290;2024-02-28T03:16:11;2.63;;;1.77;;
14094;SDS011;18096;48.142;16.290;2024-02-28T03:18:37;6.23;;;3.63;;
14094;SDS011;18096;48.142;16.290;2024-02-28T03:21:04;3.20;;;2.00;;
14094;SDS011;18096;48.142;16.290;2024-02-28T03:23:30;2.70;;;1.80;;
14094;SDS011;18096;48.142;16.290;2024-02-28T03:25:57;14.73;;;1.93;;
14094;SDS011;18096;48.142;16.290;2024-02-28T03:28:29;3.53;;;1.70;;
14094;SDS011;18096;48.142;16.290;2024-02-28T03:30:54;1.67;;;1.30;;
14094;SDS011;18096;48.142;16.290;2024-02-28T03:33:20;4.30;;;2.10;;
14094;SDS011;18096;48.142;16.290;2024-02-28T03:35:47;2.80;;;1.60;;
14094;SDS011;18096;48.142;16.290;2024-02-28T03:38:12;1.70;;;1.60;;
14094;SDS011;18096;48.142;16.290;2024-02-28T03:40:39;2.83;;;1.70;;
14094;SDS011;18096;48.142;16.290;2024-02-28T03:43:04;2.47;;;2.27;;
14094;SDS011;18096;48.142;16.290;2024-02-28T03:45:30;7.93;;;1.93;;
14094;SDS011;18096;48.142;16.290;2024-02-28T03:47:58;4.13;;;2.37;;
14094;SDS011;18096;48.142;16.290;2024-02-28T03:50:24;5.43;;;3.83;;
14094;SDS011;18096;48.142;16.290;2024-02-28T03:52:49;4.23;;;2.80;;
14094;SDS011;18096;48.142;16.290;2024-02-28T03:55:15;5.23;;;4.37;;
14094;SDS011;18096;48.142;16.290;2024-02-28T03:57:41;5.40;;;4.27;;
14094;SDS011;18096;48.142;16.290;2024-02-28T04:00:12;5.10;;;3.93;;
14094;SDS011;18096;48.142;16.290;2024-02-28T04:02:39;13.20;;;4.93;;
14094;SDS011;18096;48.142;16.290;2024-02-28T04:05:04;7.27;;;4.57;;
14094;SDS011;18096;48.142;16.290;2024-02-28T04:07:32;4.33;;;3.93;;
14094;SDS011;18096;48.142;16.290;2024-02-28T04:09:58;9.80;;;4.40;;
14094;SDS011;18096;48.142;16.290;2024-02-28T04:12:25;9.10;;;5.43;;
14094;SDS011;18096;48.142;16.290;2024-02-28T04:14:51;31.60;;;7.60;;
14094;SDS011;18096;48.142;16.290;2024-02-28T04:17:16;14.60;;;6.37;;
14094;SDS011;18096;48.142;16.290;2024-02-28T04:19:43;6.97;;;5.50;;
14094;SDS011;18096;48.142;16.290;2024-02-28T04:22:09;12.90;;;5.53;;
14094;SDS011;18096;48.142;16.290;2024-02-28T04:24:35;10.63;;;6.37;;
14094;SDS011;18096;48.142;16.290;2024-02-28T04:27:00;18.70;;;6.63;;
14094;SDS011;18096;48.142;16.290;2024-02-28T04:29:29;16.03;;;6.60;;
14094;SDS011;18096;48.142;16.290;2024-02-28T04:31:57;16.50;;;7.60;;
14094;SDS011;18096;48.142;16.290;2024-02-28T04:34:23;10.43;;;6.40;;
14094;SDS011;18096;48.142;16.290;2024-02-28T04:36:54;14.97;;;8.07;;
14094;SDS011;18096;48.142;16.290;2024-02-28T04:39:19;9.83;;;7.20;;
14094;SDS011;18096;48.142;16.290;2024-02-28T04:41:45;12.10;;;7.17;;
14094;SDS011;18096;48.142;16.290;2024-02-28T04:44:11;11.37;;;7.87;;
14094;SDS011;18096;48.142;16.290;2024-02-28T04:46:37;13.70;;;7.67;;
14094;SDS011;18096;48.142;16.290;2024-02-28T04:49:02;15.50;;;8.50;;
14094;SDS011;18096;48.142;16.290;2024-02-28T04:51:28;15.50;;;7.80;;
14094;SDS011;18096;48.142;16.290;2024-02-28T04:53:54;16.80;;;8.47;;
14094;SDS011;18096;48.142;16.290;2024-02-28T04:56:19;14.50;;;8.03;;
14094;SDS011;18096;48.142;16.290;2024-02-28T04:58:45;14.57;;;8.40;;
14094;SDS011;18096;48.142;16.290;2024-02-28T05:01:10;21.50;;;8.90;;
14094;SDS011;18096;48.142;16.290;2024-02-28T05:03:37;13.03;;;8.27;;
14094;SDS011;18096;48.142;16.290;2024-02-28T05:06:02;10.20;;;7.57;;
14094;SDS011;18096;48.142;16.290;2024-02-28T05:08:29;12.43;;;8.40;;
14094;SDS011;18096;48.142;16.290;2024-02-28T05:11:02;14.80;;;8.27;;
14094;SDS011;18096;48.142;16.290;2024-02-28T05:13:31;19.43;;;9.10;;
14094;SDS011;18096;48.142;16.290;2024-02-28T05:15:56;17.23;;;7.80;;
14094;SDS011;18096;48.142;16.290;2024-02-28T05:18:22;15.30;;;9.00;;
14094;SDS011;18096;48.142;16.290;2024-02-28T05:20:47;21.63;;;7.70;;
14094;SDS011;18096;48.142;16.290;2024-02-28T05:23:13;16.73;;;9.57;;
14094;SDS011;18096;48.142;16.290;2024-02-28T05:25:39;18.23;;;8.53;;
14094;SDS011;18096;48.142;16.290;2024-02-28T05:28:05;14.33;;;9.07;;
14094;SDS011;18096;48.142;16.290;2024-02-28T05:30:31;13.40;;;7.33;;
14094;SDS011;18096;48.142;16.290;2024-02-28T05:32:57;16.00;;;8.03;;
14094;SDS011;18096;48.142;16.290;2024-02-28T05:35:22;12.97;;;7.73;;
14094;SDS011;18096;48.142;16.290;2024-02-28T05:37:52;19.33;;;8.47;;
14094;SDS011;18096;48.142;16.290;2024-02-28T05:40:19;15.00;;;8.40;;
14094;SDS011;18096;48.142;16.290;2024-02-28T05:42:45;19.70;;;9.93;;
14094;SDS011;18096;48.142;16.290;2024-02-28T05:45:11;11.63;;;7.17;;
14094;SDS011;18096;48.142;16.290;2024-02-28T05:47:37;16.80;;;8.87;;
14094;SDS011;18096;48.142;16.290;2024-02-28T05:50:03;16.87;;;9.67;;
14094;SDS011;18096;48.142;16.290;2024-02-28T05:52:30;21.10;;;7.33;;
14094;SDS011;18096;48.142;16.290;2024-02-28T05:54:56;12.63;;;7.23;;
14094;SDS011;18096;48.142;16.290;2024-02-28T05:57:21;14.03;;;8.70;;
14094;SDS011;18096;48.142;16.290;2024-02-28T05:59:48;12.57;;;8.57;;
14094;SDS011;18096;48.142;16.290;2024-02-28T06:02:14;13.97;;;7.87;;
14094;SDS011;18096;48.142;16.290;2024-02-28T06:04:39;11.50;;;7.63;;
14094;SDS011;18096;48.142;16.290;2024-02-28T06:07:05;22.10;;;8.50;;
14094;SDS011;18096;48.142;16.290;2024-02-28T06:09:31;17.23;;;9.00;;
14094;SDS011;18096;48.142;16.290;2024-02-28T06:11:57;17.70;;;9.37;;
14094;SDS011;18096;48.142;16.290;2024-02-28T06:14:23;16.60;;;8.47;;
14094;SDS011;18096;48.142;16.290;2024-02-28T06:16:48;20.17;;;10.07;;
14094;SDS011;18096;48.142;16.290;2024-02-28T06:19:14;9.57;;;7.23;;
14094;SDS011;18096;48.142;16.290;2024-02-28T06:21:40;15.73;;;7.77;;
14094;SDS011;18096;48.142;16.290;2024-02-28T06:24:06;14.60;;;7.83;;
14094;SDS011;18096;48.142;16.290;2024-02-28T06:26:32;16.17;;;9.47;;
14094;SDS011;18096;48.142;16.290;2024-02-28T06:28:58;15.77;;;8.53;;
14094;SDS011;18096;48.142;16.290;2024-02-28T06:31:27;19.17;;;8.90;;
14094;SDS011;18096;48.142;16.290;2024-02-28T06:33:54;14.10;;;7.93;;
14094;SDS011;18096;48.142;16.290;2024-02-28T06:36:20;14.27;;;8.43;;
14094;SDS011;18096;48.142;16.290;2024-02-28T06:38:46;16.13;;;8.70;;
14094;SDS011;18096;48.142;16.290;2024-02-28T06:41:12;15.27;;;7.97;;
14094;SDS011;18096;48.142;16.290;2024-02-28T06:43:38;15.33;;;9.03;;
14094;SDS011;18096;48.142;16.290;2024-02-28T06:46:04;16.43;;;9.80;;
14094;SDS011;18096;48.142;16.290;2024-02-28T06:48:29;16.70;;;9.03;;
14094;SDS011;18096;48.142;16.290;2024-02-28T06:50:56;16.90;;;10.10;;
14094;SDS011;18096;48.142;16.290;2024-02-28T06:53:22;16.27;;;8.77;;
14094;SDS011;18096;48.142;16.290;2024-02-28T06:55:48;17.87;;;9.27;;
14094;SDS011;18096;48.142;16.290;2024-02-28T06:58:14;14.53;;;8.47;;
14094;SDS011;18096;48.142;16.290;2024-02-28T07:00:40;24.00;;;11.87;;
14094;SDS011;18096;48.142;16.290;2024-02-28T07:03:06;17.07;;;9.27;;
14094;SDS011;18096;48.142;16.290;2024-02-28T07:05:32;21.17;;;11.20;;
14094;SDS011;18096;48.142;16.290;2024-02-28T07:08:01;20.30;;;9.13;;
14094;SDS011;18096;48.142;16.290;2024-02-28T07:10:27;40.33;;;9.80;;
14094;SDS011;18096;48.142;16.290;2024-02-28T07:12:52;25.70;;;9.93;;
14094;SDS011;18096;48.142;16.290;2024-02-28T07:15:18;24.67;;;10.30;;
14094;SDS011;18096;48.142;16.290;2024-02-28T07:17:46;17.00;;;9.20;;
14094;SDS011;18096;48.142;16.290;2024-02-28T07:20:12;17.37;;;8.50;;
14094;SDS011;18096;48.142;16.290;2024-02-28T07:22:37;17.50;;;9.60;;
14094;SDS011;18096;48.142;16.290;2024-02-28T07:25:04;16.93;;;9.47;;
14094;SDS011;18096;48.142;16.290;2024-02-28T07:27:30;21.53;;;8.57;;
14094;SDS011;18096;48.142;16.290;2024-02-28T07:29:56;21.93;;;9.30;;
14094;SDS011;18096;48.142;16.290;2024-02-28T07:32:21;18.23;;;10.20;;
14094;SDS011;18096;48.142;16.290;2024-02-28T07:34:48;19.60;;;9.87;;
14094;SDS011;18096;48.142;16.290;2024-02-28T07:37:13;27.10;;;11.67;;
14094;SDS011;18096;48.142;16.290;2024-02-28T07:39:39;18.20;;;9.07;;
14094;SDS011;18096;48.142;16.290;2024-02-28T07:42:06;23.83;;;9.90;;
14094;SDS011;18096;48.142;16.290;2024-02-28T07:44:31;18.20;;;10.53;;
14094;SDS011;18096;48.142;16.290;2024-02-28T07:46:57;15.90;;;9.37;;
14094;SDS011;18096;48.142;16.290;2024-02-28T07:49:23;12.90;;;8.37;;
14094;SDS011;18096;48.142;16.290;2024-02-28T07:51:49;19.00;;;9.30;;
14094;SDS011;18096;48.142;16.290;2024-02-28T07:54:15;25.47;;;9.60;;
14094;SDS011;18096;48.142;16.290;2024-02-28T07:56:41;20.73;;;9.93;;
14094;SDS011;18096;48.142;16.290;2024-02-28T07:59:08;18.67;;;10.33;;
14094;SDS011;18096;48.142;16.290;2024-02-28T08:01:34;22.47;;;10.50;;
14094;SDS011;18096;48.142;16.290;2024-02-28T08:04:01;22.87;;;10.80;;
14094;SDS011;18096;48.142;16.290;2024-02-28T08:06:27;16.80;;;8.80;;
14094;SDS011;18096;48.142;16.290;2024-02-28T08:08:53;21.73;;;9.87;;
14094;SDS011;18096;48.142;16.290;2024-02-28T08:11:19;20.93;;;9.30;;
14094;SDS011;18096;48.142;16.290;2024-02-28T08:13:45;18.13;;;9.43;;
14094;SDS011;18096;48.142;16.290;2024-02-28T08:16:10;14.60;;;8.33;;
14094;SDS011;18096;48.142;16.290;2024-02-28T08:18:36;23.77;;;10.00;;
14094;SDS011;18096;48.142;16.290;2024-02-28T08:21:02;19.17;;;9.90;;
14094;SDS011;18096;48.142;16.290;2024-02-28T08:23:31;16.70;;;9.40;;
14094;SDS011;18096;48.142;16.290;2024-02-28T08:25:57;19.30;;;10.13;;
14094;SDS011;18096;48.142;16.290;2024-02-28T08:28:22;21.53;;;9.87;;
14094;SDS011;18096;48.142;16.290;2024-02-28T08:30:49;14.57;;;11.10;;
14094;SDS011;18096;48.142;16.290;2024-02-28T08:33:14;18.83;;;11.23;;
14094;SDS011;18096;48.142;16.290;2024-02-28T08:35:40;19.13;;;10.27;;
14094;SDS011;18096;48.142;16.290;2024-02-28T08:38:07;23.63;;;10.17;;
14094;SDS011;18096;48.142;16.290;2024-02-28T08:40:33;17.93;;;10.07;;
14094;SDS011;18096;48.142;16.290;2024-02-28T08:42:59;20.77;;;10.40;;
14094;SDS011;18096;48.142;16.290;2024-02-28T08:45:24;20.10;;;11.60;;
14094;SDS011;18096;48.142;16.290;2024-02-28T08:47:50;15.00;;;9.30;;
14094;SDS011;18096;48.142;16.290;2024-02-28T08:50:16;20.17;;;9.73;;
14094;SDS011;18096;48.142;16.290;2024-02-28T08:52:41;20.93;;;9.23;;
14094;SDS011;18096;48.142;16.290;2024-02-28T08:55:07;21.60;;;10.20;;
14094;SDS011;18096;48.142;16.290;2024-02-28T08:57:33;27.13;;;10.50;;
14094;SDS011;18096;48.142;16.290;2024-02-28T08:59:59;23.70;;;12.20;;
14094;SDS011;18096;48.142;16.290;2024-02-28T09:02:31;19.50;;;9.63;;
14094;SDS011;18096;48.142;16.290;2024-02-28T09:04:56;28.63;;;10.40;;
14094;SDS011;18096;48.142;16.290;2024-02-28T09:07:22;17.80;;;8.77;;
14094;SDS011;18096;48.142;16.290;2024-02-28T09:09:47;19.43;;;9.60;;
14094;SDS011;18096;48.142;16.290;2024-02-28T09:12:14;16.23;;;8.77;;
14094;SDS011;18096;48.142;16.290;2024-02-28T09:14:40;18.90;;;10.10;;
14094;SDS011;18096;48.142;16.290;2024-02-28T09:17:05;17.93;;;11.20;;
14094;SDS011;18096;48.142;16.290;2024-02-28T09:19:31;19.93;;;11.17;;
14094;SDS011;18096;48.142;16.290;2024-02-28T09:21:57;17.67;;;10.03;;
14094;SDS011;18096;48.142;16.290;2024-02-28T09:24:24;19.23;;;8.77;;
14094;SDS011;18096;48.142;16.290;2024-02-28T09:26:49;15.93;;;9.60;;
14094;SDS011;18096;48.142;16.290;2024-02-28T09:29:15;16.53;;;8.37;;
14094;SDS011;18096;48.142;16.290;2024-02-28T09:31:41;17.63;;;9.73;;
14094;SDS011;18096;48.142;16.290;2024-02-28T09:34:06;19.30;;;12.10;;
14094;SDS011;18096;48.142;16.290;2024-02-28T09:36:44;17.13;;;7.90;;
14094;SDS011;18096;48.142;16.290;2024-02-28T09:39:14;21.27;;;11.30;;
14094;SDS011;18096;48.142;16.290;2024-02-28T09:41:40;16.17;;;9.10;;
14094;SDS011;18096;48.142;16.290;2024-02-28T09:44:07;18.10;;;9.50;;
14094;SDS011;18096;48.142;16.290;2024-02-28T09:46:33;15.23;;;9.67;;
14094;SDS011;18096;48.142;16.290;2024-02-28T09:49:00;23.53;;;11.70;;
14094;SDS011;18096;48.142;16.290;2024-02-28T09:51:32;19.23;;;9.97;;
14094;SDS011;18096;48.142;16.290;2024-02-28T09:54:05;16.80;;;9.80;;
14094;SDS011;18096;48.142;16.290;2024-02-28T09:56:31;18.73;;;9.67;;
14094;SDS011;18096;48.142;16.290;2024-02-28T09:58:57;17.20;;;10.27;;
14094;SDS011;18096;48.142;16.290;2024-02-28T10:01:25;21.67;;;10.13;;
14094;SDS011;18096;48.142;16.290;2024-02-28T10:03:51;20.00;;;10.60;;
14094;SDS011;18096;48.142;16.290;2024-02-28T10:06:19;28.73;;;13.13;;
14094;SDS011;18096;48.142;16.290;2024-02-28T10:08:45;21.97;;;11.90;;
14094;SDS011;18096;48.142;16.290;2024-02-28T10:11:23;19.17;;;10.50;;
14094;SDS011;18096;48.142;16.290;2024-02-28T10:13:49;18.40;;;9.77;;
14094;SDS011;18096;48.142;16.290;2024-02-28T10:16:16;28.23;;;13.23;;
14094;SDS011;18096;48.142;16.290;2024-02-28T10:18:42;25.83;;;12.57;;
14094;SDS011;18096;48.142;16.290;2024-02-28T10:21:09;19.80;;;11.70;;
14094;SDS011;18096;48.142;16.290;2024-02-28T10:23:36;20.03;;;11.40;;
14094;SDS011;18096;48.142;16.290;2024-02-28T10:26:02;21.60;;;11.60;;
14094;SDS011;18096;48.142;16.290;2024-02-28T10:28:28;16.00;;;10.63;;
14094;SDS011;18096;48.142;16.290;2024-02-28T10:30:54;19.70;;;10.70;;
14094;SDS011;18096;48.142;16.290;2024-02-28T10:33:21;24.03;;;12.50;;
14094;SDS011;18096;48.142;16.290;2024-02-28T10:35:49;19.40;;;11.37;;
14094;SDS011;18096;48.142;16.290;2024-02-28T10:38:17;22.60;;;11.73;;
14094;SDS011;18096;48.142;16.290;2024-02-28T10:40:43;20.63;;;11.90;;
14094;SDS011;18096;48.142;16.290;2024-02-28T10:43:09;18.77;;;12.00;;
14094;SDS011;18096;48.142;16.290;2024-02-28T10:45:35;20.30;;;11.80;;
14094;SDS011;18096;48.142;16.290;2024-02-28T10:48:03;28.03;;;11.97;;
14094;SDS011;18096;48.142;16.290;2024-02-28T10:50:30;21.97;;;10.77;;
14094;SDS011;18096;48.142;16.290;2024-02-28T10:52:57;19.33;;;11.70;;
14094;SDS011;18096;48.142;16.290;2024-02-28T10:55:27;21.47;;;11.80;;
14094;SDS011;18096;48.142;16.290;2024-02-28T10:58:03;17.73;;;10.90;;
14094;SDS011;18096;48.142;16.290;2024-02-28T11:00:32;17.20;;;10.93;;
14094;SDS011;18096;48.142;16.290;2024-02-28T11:02:59;21.43;;;12.73;;
14094;SDS011;18096;48.142;16.290;2024-02-28T11:05:40;14.17;;;10.00;;
14094;SDS011;18096;48.142;16.290;2024-02-28T11:08:11;16.40;;;9.13;;
14094;SDS011;18096;48.142;16.290;2024-02-28T11:10:44;17.27;;;9.97;;
14094;SDS011;18096;48.142;16.290;2024-02-28T11:13:21;12.77;;;9.43;;
14094;SDS011;18096;48.142;16.290;2024-02-28T11:15:47;13.13;;;9.97;;
14094;SDS011;18096;48.142;16.290;2024-02-28T11:18:13;13.13;;;9.82;;
14094;SDS011;18096;48.142;16.290;2024-02-28T11:20:39;13.33;;;9.47;;
14094;SDS011;18096;48.142;16.290;2024-02-28T11:23:07;13.70;;;9.27;;
14094;SDS011;18096;48.142;16.290;2024-02-28T11:25:34;12.80;;;9.77;;
14094;SDS011;18096;48.142;16.290;2024-02-28T11:28:00;14.80;;;10.77;;
14094;SDS011;18096;48.142;16.290;2024-02-28T11:30:26;17.07;;;10.47;;
14094;SDS011;18096;48.142;16.290;2024-02-28T11:32:52;16.83;;;11.60;;
14094;SDS011;18096;48.142;16.290;2024-02-28T11:35:18;17.33;;;9.87;;
14094;SDS011;18096;48.142;16.290;2024-02-28T11:37:47;17.50;;;8.93;;
14094;SDS011;18096;48.142;16.290;2024-02-28T11:40:18;15.50;;;9.70;;
14094;SDS011;18096;48.142;16.290;2024-02-28T11:42:44;17.13;;;9.57;;
14094;SDS011;18096;48.142;16.290;2024-02-28T11:45:10;12.90;;;9.20;;
14094;SDS011;18096;48.142;16.290;2024-02-28T11:47:37;16.87;;;10.90;;
14094;SDS011;18096;48.142;16.290;2024-02-28T11:50:06;18.87;;;10.80;;
14094;SDS011;18096;48.142;16.290;2024-02-28T11:52:32;18.43;;;10.57;;
14094;SDS011;18096;48.142;16.290;2024-02-28T11:55:00;18.23;;;10.50;;
14094;SDS011;18096;48.142;16.290;2024-02-28T11:57:26;15.60;;;10.43;;
14094;SDS011;18096;48.142;16.290;2024-02-28T11:59:54;22.20;;;9.43;;
14094;SDS011;18096;48.142;16.290;2024-02-28T12:02:20;18.77;;;11.20;;
14094;SDS011;18096;48.142;16.290;2024-02-28T12:04:50;17.87;;;10.30;;
14094;SDS011;18096;48.142;16.290;2024-02-28T12:07:17;15.60;;;10.50;;
14094;SDS011;18096;48.142;16.290;2024-02-28T12:09:43;13.97;;;9.87;;
14094;SDS011;18096;48.142;16.290;2024-02-28T12:12:09;15.37;;;9.37;;
14094;SDS011;18096;48.142;16.290;2024-02-28T12:14:37;14.87;;;9.40;;
14094;SDS011;18096;48.142;16.290;2024-02-28T12:17:03;16.97;;;10.00;;
14094;SDS011;18096;48.142;16.290;2024-02-28T12:19:29;15.23;;;10.00;;
14094;SDS011;18096;48.142;16.290;2024-02-28T12:21:55;19.13;;;11.40;;
14094;SDS011;18096;48.142;16.290;2024-02-28T12:24:21;16.47;;;10.87;;
14094;SDS011;18096;48.142;16.290;2024-02-28T12:26:47;17.77;;;12.27;;
14094;SDS011;18096;48.142;16.290;2024-02-28T12:29:12;15.25;;;9.85;;
14094;SDS011;18096;48.142;16.290;2024-02-28T12:31:39;15.60;;;11.20;;
14094;SDS011;18096;48.142;16.290;2024-02-28T12:34:05;20.20;;;10.33;;
14094;SDS011;18096;48.142;16.290;2024-02-28T12:36:30;18.87;;;9.77;;
14094;SDS011;18096;48.142;16.290;2024-02-28T12:38:57;15.83;;;9.57;;
14094;SDS011;18096;48.142;16.290;2024-02-28T12:41:24;17.93;;;8.53;;
14094;SDS011;18096;48.142;16.290;2024-02-28T12:43:51;18.13;;;9.23;;
14094;SDS011;18096;48.142;16.290;2024-02-28T12:46:16;16.03;;;9.73;;
14094;SDS011;18096;48.142;16.290;2024-02-28T12:48:42;12.75;;;8.73;;
14094;SDS011;18096;48.142;16.290;2024-02-28T12:51:20;12.73;;;7.50;;
14094;SDS011;18096;48.142;16.290;2024-02-28T12:54:01;11.97;;;8.90;;
14094;SDS011;18096;48.142;16.290;2024-02-28T12:56:27;17.13;;;10.47;;
14094;SDS011;18096;48.142;16.290;2024-02-28T12:58:53;14.83;;;8.87;;
14094;SDS011;18096;48.142;16.290;2024-02-28T13:01:19;13.73;;;8.47;;
14094;SDS011;18096;48.142;16.290;2024-02-28T13:03:44;15.97;;;9.17;;
14094;SDS011;18096;48.142;16.290;2024-02-28T13:06:10;15.10;;;9.90;;
14094;SDS011;18096;48.142;16.290;2024-02-28T13:08:36;14.73;;;9.07;;
14094;SDS011;18096;48.142;16.290;2024-02-28T13:11:01;15.13;;;8.80;;
14094;SDS011;18096;48.142;16.290;2024-02-28T13:13:28;13.90;;;8.40;;
14094;SDS011;18096;48.142;16.290;2024-02-28T13:15:54;19.67;;;9.53;;
14094;SDS011;18096;48.142;16.290;2024-02-28T13:18:19;11.60;;;8.57;;
14094;SDS011;18096;48.142;16.290;2024-02-28T13:20:45;14.37;;;9.30;;
14094;SDS011;18096;48.142;16.290;2024-02-28T13:23:11;17.13;;;11.03;;
14094;SDS011;18096;48.142;16.290;2024-02-28T13:25:38;15.90;;;9.80;;
14094;SDS011;18096;48.142;16.290;2024-02-28T13:28:03;20.00;;;10.30;;
14094;SDS011;18096;48.142;16.290;2024-02-28T13:30:29;16.27;;;10.37;;
14094;SDS011;18096;48.142;16.290;2024-02-28T13:32:55;16.50;;;9.50;;
14094;SDS011;18096;48.142;16.290;2024-02-28T13:35:20;21.57;;;11.80;;
14094;SDS011;18096;48.142;16.290;2024-02-28T13:37:46;16.30;;;10.57;;
14094;SDS011;18096;48.142;16.290;2024-02-28T13:40:13;17.87;;;10.00;;
14094;SDS011;18096;48.142;16.290;2024-02-28T13:42:39;18.57;;;12.40;;
14094;SDS011;18096;48.142;16.290;2024-02-28T13:45:05;20.03;;;10.70;;
14094;SDS011;18096;48.142;16.290;2024-02-28T13:47:32;24.60;;;13.50;;
14094;SDS011;18096;48.142;16.290;2024-02-28T13:50:01;21.70;;;11.77;;
14094;SDS011;18096;48.142;16.290;2024-02-28T13:52:27;21.97;;;10.93;;
14094;SDS011;18096;48.142;16.290;2024-02-28T13:54:53;24.37;;;12.23;;
14094;SDS011;18096;48.142;16.290;2024-02-28T13:57:19;18.73;;;10.77;;
14094;SDS011;18096;48.142;16.290;2024-02-28T13:59:45;22.37;;;10.97;;
14094;SDS011;18096;48.142;16.290;2024-02-28T14:02:14;19.30;;;10.70;;
14094;SDS011;18096;48.142;16.290;2024-02-28T14:04:40;21.83;;;11.70;;
14094;SDS011;18096;48.142;16.290;2024-02-28T14:07:08;25.20;;;11.63;;
14094;SDS011;18096;48.142;16.290;2024-02-28T14:09:34;24.73;;;11.20;;
14094;SDS011;18096;48.142;16.290;2024-02-28T14:11:59;21.03;;;10.53;;
14094;SDS011;18096;48.142;16.290;2024-02-28T14:14:25;19.10;;;10.50;;
14094;SDS011;18096;48.142;16.290;2024-02-28T14:16:51;21.33;;;11.40;;